createdAt,value
2018-01-17T00:04:15.434Z,3.00
2018-01-17T00:09:18.122Z,2.30
2018-01-17T00:14:20.960Z,3.10
2018-01-17T00:19:23.649Z,2.33
2018-01-17T00:24:26.598Z,2.60
2018-01-17T00:29:29.253Z,3.03
2018-01-17T00:34:32.616Z,4.00
2018-01-17T00:39:35.211Z,2.30
2018-01-17T00:44:39.551Z,3.00
2018-01-17T00:49:43.001Z,2.63
2018-01-17T00:54:46.647Z,2.73
2018-01-17T00:59:49.339Z,2.77
2018-01-17T01:04:52.343Z,2.87
2018-01-17T01:09:55.024Z,3.37
2018-01-17T01:14:58.807Z,2.23
2018-01-17T01:20:01.681Z,2.93
2018-01-17T01:25:04.878Z,3.10
2018-01-17T01:30:07.600Z,2.77
2018-01-17T01:35:10.739Z,2.43
2018-01-17T01:40:13.483Z,3.50
2018-01-17T01:45:16.805Z,3.27
2018-01-17T01:50:19.463Z,3.20
2018-01-17T01:55:24.122Z,3.57
2018-01-17T02:00:27.916Z,2.33
2018-01-17T02:05:31.697Z,2.80
2018-01-17T02:10:34.358Z,3.40
2018-01-17T02:15:37.478Z,2.60
2018-01-17T02:20:40.950Z,3.10
2018-01-17T02:25:44.457Z,3.47
2018-01-17T02:30:47.278Z,2.57
2018-01-17T02:35:50.061Z,2.47
2018-01-17T02:40:52.785Z,3.23
2018-01-17T02:45:56.052Z,3.20
2018-01-17T02:50:59.676Z,2.83
2018-01-17T02:56:03.918Z,3.33
2018-01-17T03:01:06.558Z,2.73
2018-01-17T03:06:09.722Z,3.17
2018-01-17T03:11:12.432Z,3.37
2018-01-17T03:16:16.238Z,3.70
2018-01-17T03:21:19.655Z,3.40
2018-01-17T03:26:23.293Z,4.00
2018-01-17T03:31:26.721Z,3.47
2018-01-17T03:36:29.520Z,3.07
2018-01-17T03:41:32.131Z,3.00
2018-01-17T03:46:35.498Z,3.37
2018-01-17T03:51:38.228Z,3.70
2018-01-17T03:56:41.280Z,4.67
2018-01-17T04:01:43.939Z,3.80
2018-01-17T04:06:47.154Z,3.83
2018-01-17T04:11:49.859Z,4.70
2018-01-17T04:16:53.106Z,4.70
2018-01-17T04:21:55.737Z,3.70
2018-01-17T04:26:58.969Z,3.83
2018-01-17T04:32:01.583Z,4.07
2018-01-17T04:37:04.821Z,3.63
2018-01-17T04:42:07.480Z,5.67
2018-01-17T04:47:10.903Z,4.03
2018-01-17T04:52:13.547Z,4.00
2018-01-17T04:57:16.626Z,4.60
2018-01-17T05:02:19.260Z,3.07
2018-01-17T05:07:22.624Z,5.47
2018-01-17T05:12:26.011Z,4.47
2018-01-17T05:17:29.483Z,3.73
2018-01-17T05:22:32.122Z,5.17
2018-01-17T05:27:35.312Z,4.97
2018-01-17T05:32:37.969Z,3.93
2018-01-17T05:37:41.114Z,4.40
2018-01-17T05:42:43.790Z,3.23
2018-01-17T05:47:46.853Z,4.53
2018-01-17T05:52:49.566Z,5.33
2018-01-17T05:57:52.735Z,5.07
2018-01-17T06:02:55.358Z,4.40
2018-01-17T06:07:58.448Z,5.50
2018-01-17T06:13:01.086Z,4.40
2018-01-17T06:18:05.114Z,5.03
2018-01-17T06:23:07.748Z,4.30
2018-01-17T06:28:10.933Z,4.97
2018-01-17T06:33:14.382Z,5.03
2018-01-17T06:38:18.200Z,4.83
2018-01-17T06:43:20.856Z,5.60
2018-01-17T06:48:23.504Z,5.33
2018-01-17T06:53:26.123Z,4.60
2018-01-17T06:58:29.499Z,4.80
2018-01-17T07:03:32.183Z,5.40
2018-01-17T07:08:35.539Z,5.40
2018-01-17T07:13:38.263Z,5.73
2018-01-17T07:18:41.117Z,5.03
2018-01-17T07:23:44.515Z,9.57
2018-01-17T07:28:47.198Z,5.73
2018-01-17T07:33:49.832Z,6.13
2018-01-17T07:38:54.150Z,6.30
2018-01-17T07:43:56.877Z,4.97
2018-01-17T07:49:01.051Z,5.37
2018-01-17T07:54:03.823Z,6.30
2018-01-17T07:59:06.996Z,4.87
2018-01-17T08:04:09.658Z,6.20
2018-01-17T08:09:12.810Z,5.53
2018-01-17T08:14:15.422Z,4.80
2018-01-17T08:19:19.804Z,4.80
2018-01-17T08:24:22.462Z,5.50
2018-01-17T08:29:26.656Z,4.00
2018-01-17T08:34:29.270Z,4.50
2018-01-17T08:39:32.642Z,4.53
2018-01-17T08:44:35.289Z,3.60
2018-01-17T08:49:38.503Z,4.53
2018-01-17T08:54:41.151Z,5.73
2018-01-17T08:59:44.316Z,4.37
2018-01-17T09:04:46.942Z,4.17
2018-01-17T09:09:51.214Z,3.33
2018-01-17T09:14:53.865Z,2.87
2018-01-17T09:19:57.318Z,3.70
2018-01-17T09:24:59.984Z,2.80
2018-01-17T09:30:04.367Z,3.30
2018-01-17T09:35:07.013Z,3.57
2018-01-17T09:40:10.353Z,2.83
2018-01-17T09:45:12.998Z,3.43
2018-01-17T09:50:16.392Z,3.47
2018-01-17T09:55:19.030Z,2.40
2018-01-17T10:00:22.335Z,3.03
2018-01-17T10:05:24.986Z,3.30
2018-01-17T10:10:28.165Z,3.30
2018-01-17T10:15:30.896Z,3.40
2018-01-17T10:20:33.981Z,3.33
2018-01-17T10:25:37.407Z,3.40
2018-01-17T10:30:41.044Z,3.10
2018-01-17T10:35:43.713Z,2.27
2018-01-17T10:40:46.725Z,2.90
2018-01-17T10:45:49.354Z,2.67
2018-01-17T10:50:52.733Z,2.63
2018-01-17T10:55:55.404Z,3.53
2018-01-17T11:00:58.805Z,13.23
2018-01-17T11:06:01.472Z,4.13
2018-01-17T11:11:04.906Z,4.93
2018-01-17T11:16:07.564Z,5.13
2018-01-17T11:21:10.910Z,5.70
2018-01-17T11:26:14.364Z,5.47
2018-01-17T11:31:17.948Z,5.33
2018-01-17T11:36:21.364Z,6.63
2018-01-17T11:41:24.804Z,7.27
2018-01-17T11:46:27.518Z,5.60
2018-01-17T11:51:30.814Z,5.13
2018-01-17T11:56:33.449Z,6.87
2018-01-17T12:01:36.666Z,6.50
2018-01-17T12:06:39.356Z,7.20
2018-01-17T12:11:42.745Z,8.30
2018-01-17T12:16:45.415Z,7.90
2018-01-17T12:21:49.601Z,6.70
2018-01-17T12:26:52.237Z,5.87
2018-01-17T12:31:55.334Z,5.43
2018-01-17T12:36:58.097Z,5.70
2018-01-17T12:42:01.216Z,5.30
2018-01-17T12:47:03.865Z,4.47
2018-01-17T12:52:07.499Z,5.70
2018-01-17T12:57:10.906Z,5.43
2018-01-17T13:02:14.388Z,5.47
2018-01-17T13:07:17.065Z,4.80
2018-01-17T13:12:19.954Z,4.33
2018-01-17T13:17:22.620Z,4.27
2018-01-17T13:22:25.688Z,3.90
2018-01-17T13:27:28.448Z,3.80
2018-01-17T13:32:32.586Z,4.43
2018-01-17T13:37:35.990Z,3.27
2018-01-17T13:42:39.468Z,3.83
2018-01-17T13:47:42.137Z,2.80
2018-01-17T13:52:45.547Z,2.63
2018-01-17T13:57:48.339Z,3.40
2018-01-17T14:02:52.578Z,3.17
2018-01-17T14:07:56.016Z,3.00
2018-01-17T14:12:59.509Z,3.60
2018-01-17T14:18:02.893Z,3.10
2018-01-17T14:23:06.511Z,3.70
2018-01-17T14:28:09.177Z,3.20
2018-01-17T14:33:12.610Z,3.67
2018-01-17T14:38:15.276Z,3.63
2018-01-17T14:43:18.585Z,3.20
2018-01-17T14:48:22.140Z,2.47
2018-01-17T14:53:25.627Z,2.93
2018-01-17T14:58:28.309Z,2.80
2018-01-17T15:03:32.597Z,3.03
2018-01-17T15:08:35.265Z,2.37
2018-01-17T15:13:38.580Z,2.60
2018-01-17T15:18:41.380Z,2.40
2018-01-17T15:23:44.846Z,2.77
2018-01-17T15:28:47.525Z,2.73
2018-01-17T15:33:50.866Z,2.37
2018-01-17T15:38:53.537Z,2.83
2018-01-17T15:43:56.805Z,2.93
2018-01-17T15:49:00.470Z,2.70
2018-01-17T15:54:04.964Z,3.20
2018-01-17T15:59:07.698Z,12.13
2018-01-17T16:04:11.903Z,3.60
2018-01-17T16:09:16.811Z,2.70
2018-01-17T16:14:20.684Z,3.00
2018-01-17T16:19:23.411Z,3.20
2018-01-17T16:24:26.729Z,3.37
2018-01-17T16:29:29.338Z,3.23
2018-01-17T16:34:33.797Z,3.47
2018-01-17T16:39:36.855Z,2.50
2018-01-17T16:44:40.116Z,3.10
2018-01-17T16:49:43.444Z,2.50
2018-01-17T16:54:47.905Z,3.07
2018-01-17T16:59:51.834Z,3.13
2018-01-17T17:04:56.325Z,2.80
2018-01-17T17:09:59.197Z,3.50
2018-01-17T17:15:05.998Z,2.87
2018-01-17T17:20:10.147Z,2.90
2018-01-17T17:25:13.532Z,2.47
2018-01-17T17:30:17.223Z,2.43
2018-01-17T17:35:21.005Z,2.80
2018-01-17T17:40:23.787Z,2.47
2018-01-17T17:45:26.827Z,1.80
2018-01-17T17:50:29.505Z,2.40
2018-01-17T17:55:33.457Z,2.87
2018-01-17T18:00:36.165Z,2.33
2018-01-17T18:05:38.914Z,2.93
2018-01-17T18:10:41.731Z,2.73
2018-01-17T18:15:46.172Z,3.40
2018-01-17T18:20:48.875Z,3.13
2018-01-17T18:25:51.644Z,3.07
2018-01-17T18:30:55.394Z,3.40
2018-01-17T18:35:58.998Z,3.60
2018-01-17T18:41:01.722Z,2.33
2018-01-17T18:46:04.693Z,3.50
2018-01-17T18:51:08.110Z,3.70
2018-01-17T18:56:11.676Z,3.23
2018-01-17T19:01:14.989Z,2.80
2018-01-17T19:06:18.954Z,2.23
2018-01-17T19:11:23.097Z,3.77
2018-01-17T19:16:26.832Z,3.07
2018-01-17T19:21:29.512Z,2.93
2018-01-17T19:26:33.978Z,3.90
2018-01-17T19:31:37.562Z,5.40
2018-01-17T19:36:42.294Z,4.10
2018-01-17T19:41:46.817Z,5.07
2018-01-17T19:46:49.953Z,7.17
2018-01-17T19:51:52.697Z,5.40
2018-01-17T19:56:56.024Z,7.43
2018-01-17T20:02:01.030Z,8.60
2018-01-17T20:07:16.606Z,8.47
2018-01-17T20:12:19.498Z,8.47
2018-01-17T20:17:23.163Z,7.93
2018-01-17T20:22:33.245Z,7.53
2018-01-17T20:27:36.928Z,9.30
2018-01-17T20:32:40.365Z,5.80
2018-01-17T20:37:43.975Z,5.60
2018-01-17T20:42:48.106Z,7.20
2018-01-17T20:47:53.217Z,5.73
2018-01-17T20:52:56.034Z,8.50
2018-01-17T20:57:59.461Z,8.97
2018-01-17T21:03:05.531Z,5.73
2018-01-17T21:08:09.343Z,7.30
2018-01-17T21:13:12.862Z,8.43
2018-01-17T21:18:17.333Z,8.93
2018-01-17T21:23:19.961Z,9.03
2018-01-17T21:28:26.330Z,8.33
2018-01-17T21:33:29.118Z,8.17
2018-01-17T21:38:32.871Z,19.97
2018-01-17T21:43:41.986Z,8.27
2018-01-17T21:48:44.722Z,8.07
2018-01-17T21:53:48.150Z,9.33
2018-01-17T21:58:51.880Z,7.80
2018-01-17T22:03:54.626Z,8.33
2018-01-17T22:08:58.826Z,8.13
2018-01-17T22:14:01.524Z,6.30
2018-01-17T22:19:04.589Z,7.07
2018-01-17T22:24:07.243Z,7.67
2018-01-17T22:29:10.850Z,7.23
2018-01-17T22:34:13.509Z,6.53
2018-01-17T22:39:16.821Z,7.37
2018-01-17T22:44:19.489Z,6.70
2018-01-17T22:49:22.972Z,6.73
2018-01-17T22:54:26.419Z,6.30
2018-01-17T22:59:29.906Z,5.77
2018-01-17T23:04:33.348Z,5.97
2018-01-17T23:09:36.796Z,6.73
2018-01-17T23:14:39.505Z,4.43
2018-01-17T23:19:42.606Z,5.73
2018-01-17T23:24:45.295Z,5.63
2018-01-17T23:29:48.363Z,5.17
2018-01-17T23:34:51.818Z,5.00
2018-01-17T23:39:55.320Z,5.37
2018-01-17T23:44:58.090Z,4.63
2018-01-17T23:50:00.965Z,5.20
2018-01-17T23:55:03.688Z,5.30
